DRRN/NIM METAR and TAF weather

Enter ICAO airport designator
Station Type Date Time Source
DRRN METAR 2019/08/17 10:00 UTC NOAA

DRRN 171000Z 22008KT CAVOK 29/21 Q1013 NOSIG


Station Type Date Time Source
DRRN Decoded METAR 2019/08/17 10:00 UTC NOAA

Station name not available
Aug 17, 2019 - 06:00 AM EDT / 2019.08.17 1000 UTC
Wind: from the SW (220 degrees) at 9 MPH (8 KT):0
Visibility: greater than 7 mile(s):0
Temperature: 84 F (29 C)
Dew Point: 69 F (21 C)
Relative Humidity: 62%
Pressure (altimeter): 29.91 in. Hg (1013 hPa)
ob: DRRN 171000Z 22008KT CAVOK 29/21 Q1013 NOSIG
cycle: 10

Station Type Date Time Source
DRRN TAF 2019/08/17 06:21 UTC NOAA

TAF DRRN 170500Z 1706/1812 22008KT CAVOK PROB30
TEMPO 1716/1720 TS FEW015CB PROB30
TEMPO 1802/1806 08015G35KT 2000 SQ BLDU TSRA BKN013 SCT016CB

Example: see airport list